首页
METAR-TAF:

METAR-TAF

机场 :

伊利, 明尼蘇達州, 美国

纬度: 47-49N, 经度: 091-50W, 海拔: 443米

当前天气观测

该预报发布于32分钟前的15:35 UTC
风速5节,风向南转南东
温度 20°C
湿度 49%
气压 1023 hPa
能見度: 16.1公里
多云层高于3700英尺

METAR: KELO 211535Z AUTO 15005KT 10SM BKN037 20/09 A3022 RMK AO2

时间: 11:07 (16:07 UTC)


TAF: 丢失

超过4000个机场的气象观测和天气预报(METAR&TAF报告)。

可查询的气象台以黄色和红色小点在地图上表示。

将鼠标移到小点上方,可查看气象台名称。

然后点击查看天气观测和预报。

如需切换地图:点击带黑十字的绿色按钮放大地图;点击带横线的绿色按钮缩小地图;或者点击绿色箭头查看邻近地区的地图。


METAR-TAF: